sensor_id;sensor_type;location;lat;lon;timestamp;P1;durP1;ratioP1;P2;durP2;ratioP2
79611;SDS011;69094;48.154;11.536;2023-04-06T13:33:18;10.10;;;7.30;;
79611;SDS011;69094;48.154;11.536;2023-04-06T13:35:44;8.20;;;6.47;;
79611;SDS011;69094;48.154;11.536;2023-04-06T13:38:10;11.65;;;6.80;;
79611;SDS011;69094;48.154;11.536;2023-04-06T13:40:38;7.45;;;5.95;;
79611;SDS011;69094;48.154;11.536;2023-04-06T13:43:04;7.75;;;5.75;;
79611;SDS011;69094;48.154;11.536;2023-04-06T13:45:30;8.27;;;6.18;;
79611;SDS011;69094;48.154;11.536;2023-04-06T13:47:55;8.20;;;6.10;;
79611;SDS011;69094;48.154;11.536;2023-04-06T13:50:21;9.87;;;5.97;;
79611;SDS011;69094;48.154;11.536;2023-04-06T13:52:46;10.65;;;6.13;;
79611;SDS011;69094;48.154;11.536;2023-04-06T13:55:12;6.60;;;5.25;;
79611;SDS011;69094;48.154;11.536;2023-04-06T13:57:37;9.15;;;6.05;;
79611;SDS011;69094;48.154;11.536;2023-04-06T14:00:03;8.88;;;5.75;;
79611;SDS011;69094;48.154;11.536;2023-04-06T14:02:29;9.50;;;5.85;;
79611;SDS011;69094;48.154;11.536;2023-04-06T14:04:54;7.63;;;5.57;;
79611;SDS011;69094;48.154;11.536;2023-04-06T14:07:20;7.70;;;5.55;;
79611;SDS011;69094;48.154;11.536;2023-04-06T14:09:46;7.97;;;4.70;;
79611;SDS011;69094;48.154;11.536;2023-04-06T14:12:12;7.60;;;4.80;;
79611;SDS011;69094;48.154;11.536;2023-04-06T14:14:37;5.20;;;4.50;;
79611;SDS011;69094;48.154;11.536;2023-04-06T14:17:02;8.80;;;6.10;;
79611;SDS011;69094;48.154;11.536;2023-04-06T14:19:28;7.03;;;5.30;;
79611;SDS011;69094;48.154;11.536;2023-04-06T14:21:53;7.55;;;4.65;;
79611;SDS011;69094;48.154;11.536;2023-04-06T14:24:19;7.28;;;5.13;;
79611;SDS011;69094;48.154;11.536;2023-04-06T14:26:45;6.78;;;5.13;;
79611;SDS011;69094;48.154;11.536;2023-04-06T14:29:11;6.32;;;5.00;;
79611;SDS011;69094;48.154;11.536;2023-04-06T14:31:36;9.82;;;5.10;;
79611;SDS011;69094;48.154;11.536;2023-04-06T14:34:02;7.73;;;5.53;;
79611;SDS011;69094;48.154;11.536;2023-04-06T14:36:28;8.43;;;4.78;;
79611;SDS011;69094;48.154;11.536;2023-04-06T14:39:01;7.65;;;4.78;;
79611;SDS011;69094;48.154;11.536;2023-04-06T14:41:27;8.02;;;5.40;;
79611;SDS011;69094;48.154;11.536;2023-04-06T14:43:53;8.45;;;5.20;;
79611;SDS011;69094;48.154;11.536;2023-04-06T14:46:18;7.63;;;5.90;;
79611;SDS011;69094;48.154;11.536;2023-04-06T14:48:44;7.55;;;5.10;;
79611;SDS011;69094;48.154;11.536;2023-04-06T14:51:10;6.05;;;4.85;;
79611;SDS011;69094;48.154;11.536;2023-04-06T14:53:35;7.22;;;5.15;;
79611;SDS011;69094;48.154;11.536;2023-04-06T14:56:01;10.25;;;5.70;;
79611;SDS011;69094;48.154;11.536;2023-04-06T14:58:26;10.47;;;6.63;;
79611;SDS011;69094;48.154;11.536;2023-04-06T15:01:01;10.90;;;6.47;;
79611;SDS011;69094;48.154;11.536;2023-04-06T15:03:27;6.50;;;4.65;;
79611;SDS011;69094;48.154;11.536;2023-04-06T15:05:54;7.60;;;4.68;;
79611;SDS011;69094;48.154;11.536;2023-04-06T15:08:21;7.50;;;4.68;;
79611;SDS011;69094;48.154;11.536;2023-04-06T15:10:47;6.30;;;4.45;;
79611;SDS011;69094;48.154;11.536;2023-04-06T15:13:13;6.43;;;4.85;;
79611;SDS011;69094;48.154;11.536;2023-04-06T15:15:40;5.97;;;4.35;;
79611;SDS011;69094;48.154;11.536;2023-04-06T15:18:06;5.38;;;4.00;;
79611;SDS011;69094;48.154;11.536;2023-04-06T15:20:32;8.23;;;4.65;;
79611;SDS011;69094;48.154;11.536;2023-04-06T15:22:57;15.23;;;9.30;;
79611;SDS011;69094;48.154;11.536;2023-04-06T15:25:23;8.88;;;4.85;;
79611;SDS011;69094;48.154;11.536;2023-04-06T15:27:48;6.07;;;3.83;;
79611;SDS011;69094;48.154;11.536;2023-04-06T15:30:14;7.65;;;3.90;;
79611;SDS011;69094;48.154;11.536;2023-04-06T15:32:39;5.53;;;3.80;;
79611;SDS011;69094;48.154;11.536;2023-04-06T15:35:09;6.00;;;3.92;;
79611;SDS011;69094;48.154;11.536;2023-04-06T15:37:36;6.05;;;3.67;;
79611;SDS011;69094;48.154;11.536;2023-04-06T15:40:02;5.72;;;3.58;;
79611;SDS011;69094;48.154;11.536;2023-04-06T15:42:27;5.55;;;3.90;;
79611;SDS011;69094;48.154;11.536;2023-04-06T15:44:53;4.87;;;3.63;;
79611;SDS011;69094;48.154;11.536;2023-04-06T15:47:18;6.20;;;3.93;;
79611;SDS011;69094;48.154;11.536;2023-04-06T15:49:43;4.93;;;4.10;;
79611;SDS011;69094;48.154;11.536;2023-04-06T15:52:09;6.43;;;4.78;;
79611;SDS011;69094;48.154;11.536;2023-04-06T15:54:34;6.75;;;4.63;;
79611;SDS011;69094;48.154;11.536;2023-04-06T15:57:05;5.80;;;4.32;;
79611;SDS011;69094;48.154;11.536;2023-04-06T15:59:31;5.28;;;4.68;;
79611;SDS011;69094;48.154;11.536;2023-04-06T16:01:56;7.53;;;5.30;;
79611;SDS011;69094;48.154;11.536;2023-04-06T16:04:23;7.65;;;5.05;;
79611;SDS011;69094;48.154;11.536;2023-04-06T16:06:48;6.93;;;4.55;;
79611;SDS011;69094;48.154;11.536;2023-04-06T16:09:14;8.55;;;4.93;;
79611;SDS011;69094;48.154;11.536;2023-04-06T16:11:40;6.70;;;4.30;;
79611;SDS011;69094;48.154;11.536;2023-04-06T16:14:05;6.67;;;4.60;;
79611;SDS011;69094;48.154;11.536;2023-04-06T16:16:30;6.85;;;4.75;;
79611;SDS011;69094;48.154;11.536;2023-04-06T16:18:56;7.07;;;5.10;;
79611;SDS011;69094;48.154;11.536;2023-04-06T16:21:21;5.93;;;4.30;;
79611;SDS011;69094;48.154;11.536;2023-04-06T16:23:47;7.50;;;4.40;;
79611;SDS011;69094;48.154;11.536;2023-04-06T16:26:13;7.32;;;5.13;;
79611;SDS011;69094;48.154;11.536;2023-04-06T16:28:40;7.82;;;5.38;;
79611;SDS011;69094;48.154;11.536;2023-04-06T16:31:05;7.45;;;4.95;;
79611;SDS011;69094;48.154;11.536;2023-04-06T16:33:31;9.55;;;6.30;;
79611;SDS011;69094;48.154;11.536;2023-04-06T16:35:56;8.18;;;5.38;;
79611;SDS011;69094;48.154;11.536;2023-04-06T16:38:22;9.98;;;6.10;;
79611;SDS011;69094;48.154;11.536;2023-04-06T16:40:48;8.65;;;5.65;;
79611;SDS011;69094;48.154;11.536;2023-04-06T16:43:13;7.72;;;4.90;;
79611;SDS011;69094;48.154;11.536;2023-04-06T16:45:39;9.43;;;5.03;;
79611;SDS011;69094;48.154;11.536;2023-04-06T16:48:05;10.90;;;5.30;;
79611;SDS011;69094;48.154;11.536;2023-04-06T16:50:30;9.88;;;5.70;;
79611;SDS011;69094;48.154;11.536;2023-04-06T16:52:56;6.65;;;4.90;;
79611;SDS011;69094;48.154;11.536;2023-04-06T16:55:21;8.07;;;5.15;;
79611;SDS011;69094;48.154;11.536;2023-04-06T16:57:46;9.13;;;5.07;;
79611;SDS011;69094;48.154;11.536;2023-04-06T17:00:13;6.80;;;4.38;;
79611;SDS011;69094;48.154;11.536;2023-04-06T17:02:39;7.18;;;4.32;;
79611;SDS011;69094;48.154;11.536;2023-04-06T17:05:04;6.13;;;4.70;;
79611;SDS011;69094;48.154;11.536;2023-04-06T17:07:30;6.40;;;4.50;;
79611;SDS011;69094;48.154;11.536;2023-04-06T17:09:59;9.15;;;4.97;;
79611;SDS011;69094;48.154;11.536;2023-04-06T17:12:25;9.65;;;5.80;;
79611;SDS011;69094;48.154;11.536;2023-04-06T17:14:51;12.13;;;7.35;;
79611;SDS011;69094;48.154;11.536;2023-04-06T17:17:16;10.33;;;6.43;;
79611;SDS011;69094;48.154;11.536;2023-04-06T17:19:41;11.13;;;5.80;;
79611;SDS011;69094;48.154;11.536;2023-04-06T17:22:07;8.88;;;4.90;;
79611;SDS011;69094;48.154;11.536;2023-04-06T17:24:32;7.40;;;4.70;;
79611;SDS011;69094;48.154;11.536;2023-04-06T17:26:57;15.55;;;8.18;;
79611;SDS011;69094;48.154;11.536;2023-04-06T17:29:23;15.45;;;8.73;;
79611;SDS011;69094;48.154;11.536;2023-04-06T17:31:48;15.43;;;8.57;;
79611;SDS011;69094;48.154;11.536;2023-04-06T17:34:14;11.93;;;6.40;;
79611;SDS011;69094;48.154;11.536;2023-04-06T17:36:39;10.20;;;6.45;;
79611;SDS011;69094;48.154;11.536;2023-04-06T17:39:04;8.88;;;5.40;;
79611;SDS011;69094;48.154;11.536;2023-04-06T17:41:30;8.90;;;5.72;;
79611;SDS011;69094;48.154;11.536;2023-04-06T17:43:58;10.40;;;5.60;;
79611;SDS011;69094;48.154;11.536;2023-04-06T17:46:23;8.50;;;5.37;;
79611;SDS011;69094;48.154;11.536;2023-04-06T17:48:49;10.20;;;5.30;;
79611;SDS011;69094;48.154;11.536;2023-04-06T17:51:15;26.25;;;13.82;;
79611;SDS011;69094;48.154;11.536;2023-04-06T17:53:43;32.03;;;16.08;;
79611;SDS011;69094;48.154;11.536;2023-04-06T17:56:09;10.85;;;5.97;;
79611;SDS011;69094;48.154;11.536;2023-04-06T17:58:34;9.30;;;6.17;;
79611;SDS011;69094;48.154;11.536;2023-04-06T18:01:04;9.82;;;5.65;;
79611;SDS011;69094;48.154;11.536;2023-04-06T18:03:32;11.80;;;5.43;;
79611;SDS011;69094;48.154;11.536;2023-04-06T18:06:07;12.38;;;6.72;;
79611;SDS011;69094;48.154;11.536;2023-04-06T18:08:33;9.60;;;5.65;;
79611;SDS011;69094;48.154;11.536;2023-04-06T18:10:58;8.20;;;5.83;;
79611;SDS011;69094;48.154;11.536;2023-04-06T18:13:25;13.95;;;6.88;;
79611;SDS011;69094;48.154;11.536;2023-04-06T18:15:51;13.10;;;7.57;;
79611;SDS011;69094;48.154;11.536;2023-04-06T18:18:18;13.05;;;7.07;;
79611;SDS011;69094;48.154;11.536;2023-04-06T18:20:43;13.55;;;7.60;;
79611;SDS011;69094;48.154;11.536;2023-04-06T18:23:08;13.00;;;6.93;;
79611;SDS011;69094;48.154;11.536;2023-04-06T18:25:37;11.15;;;6.43;;
79611;SDS011;69094;48.154;11.536;2023-04-06T18:28:03;12.30;;;6.70;;
79611;SDS011;69094;48.154;11.536;2023-04-06T18:30:29;13.15;;;7.20;;
79611;SDS011;69094;48.154;11.536;2023-04-06T18:32:54;13.77;;;7.57;;
79611;SDS011;69094;48.154;11.536;2023-04-06T18:35:20;11.57;;;6.57;;
79611;SDS011;69094;48.154;11.536;2023-04-06T18:37:45;10.40;;;7.27;;
79611;SDS011;69094;48.154;11.536;2023-04-06T18:40:30;13.53;;;7.33;;
79611;SDS011;69094;48.154;11.536;2023-04-06T18:42:56;15.02;;;8.40;;
79611;SDS011;69094;48.154;11.536;2023-04-06T18:45:22;15.32;;;8.85;;
79611;SDS011;69094;48.154;11.536;2023-04-06T18:47:47;18.73;;;9.48;;
79611;SDS011;69094;48.154;11.536;2023-04-06T18:50:13;15.85;;;9.10;;
79611;SDS011;69094;48.154;11.536;2023-04-06T18:55:07;12.65;;;7.90;;
79611;SDS011;69094;48.154;11.536;2023-04-06T18:57:33;16.77;;;8.52;;
79611;SDS011;69094;48.154;11.536;2023-04-06T18:59:59;15.27;;;8.95;;
79611;SDS011;69094;48.154;11.536;2023-04-06T19:02:25;13.75;;;8.35;;
79611;SDS011;69094;48.154;11.536;2023-04-06T19:04:50;14.52;;;8.50;;
79611;SDS011;69094;48.154;11.536;2023-04-06T19:07:16;14.47;;;8.87;;
79611;SDS011;69094;48.154;11.536;2023-04-06T19:12:06;16.00;;;9.50;;
79611;SDS011;69094;48.154;11.536;2023-04-06T19:14:32;17.15;;;8.90;;
79611;SDS011;69094;48.154;11.536;2023-04-06T19:19:23;12.60;;;7.47;;
79611;SDS011;69094;48.154;11.536;2023-04-06T19:21:48;13.73;;;8.05;;
79611;SDS011;69094;48.154;11.536;2023-04-06T19:26:39;13.67;;;7.80;;
79611;SDS011;69094;48.154;11.536;2023-04-06T19:29:06;14.48;;;8.13;;
79611;SDS011;69094;48.154;11.536;2023-04-06T19:31:31;17.42;;;8.38;;
79611;SDS011;69094;48.154;11.536;2023-04-06T19:33:57;15.47;;;9.07;;
79611;SDS011;69094;48.154;11.536;2023-04-06T19:38:47;17.67;;;9.57;;
79611;SDS011;69094;48.154;11.536;2023-04-06T19:43:38;15.47;;;8.50;;
79611;SDS011;69094;48.154;11.536;2023-04-06T19:46:03;13.95;;;8.45;;
79611;SDS011;69094;48.154;11.536;2023-04-06T19:50:54;12.13;;;7.75;;
79611;SDS011;69094;48.154;11.536;2023-04-06T19:55:45;16.52;;;8.00;;
79611;SDS011;69094;48.154;11.536;2023-04-06T20:00:37;19.85;;;9.13;;
79611;SDS011;69094;48.154;11.536;2023-04-06T20:05:28;20.88;;;8.13;;
79611;SDS011;69094;48.154;11.536;2023-04-06T20:10:19;15.17;;;7.83;;
79611;SDS011;69094;48.154;11.536;2023-04-06T20:15:10;13.27;;;7.70;;
79611;SDS011;69094;48.154;11.536;2023-04-06T20:17:36;16.33;;;8.52;;
79611;SDS011;69094;48.154;11.536;2023-04-06T20:22:27;14.48;;;7.82;;
79611;SDS011;69094;48.154;11.536;2023-04-06T20:27:19;15.07;;;8.27;;
79611;SDS011;69094;48.154;11.536;2023-04-06T20:32:10;15.00;;;8.30;;
79611;SDS011;69094;48.154;11.536;2023-04-06T20:34:36;15.23;;;7.40;;
79611;SDS011;69094;48.154;11.536;2023-04-06T20:37:02;15.05;;;8.30;;
79611;SDS011;69094;48.154;11.536;2023-04-06T20:41:53;15.18;;;7.15;;
79611;SDS011;69094;48.154;11.536;2023-04-06T20:46:49;23.95;;;11.75;;
79611;SDS011;69094;48.154;11.536;2023-04-06T20:51:39;22.73;;;8.63;;
79611;SDS011;69094;48.154;11.536;2023-04-06T20:54:06;17.90;;;8.75;;
79611;SDS011;69094;48.154;11.536;2023-04-06T20:58:57;16.30;;;8.13;;
79611;SDS011;69094;48.154;11.536;2023-04-06T21:01:23;17.52;;;8.13;;
79611;SDS011;69094;48.154;11.536;2023-04-06T21:06:14;15.13;;;7.23;;
79611;SDS011;69094;48.154;11.536;2023-04-06T21:08:40;16.85;;;8.73;;
79611;SDS011;69094;48.154;11.536;2023-04-06T21:13:31;16.05;;;8.18;;
79611;SDS011;69094;48.154;11.536;2023-04-06T21:18:23;18.23;;;7.93;;
79611;SDS011;69094;48.154;11.536;2023-04-06T21:20:48;20.08;;;8.07;;
79611;SDS011;69094;48.154;11.536;2023-04-06T21:25:40;14.13;;;7.13;;
79611;SDS011;69094;48.154;11.536;2023-04-06T21:28:05;14.77;;;7.67;;
79611;SDS011;69094;48.154;11.536;2023-04-06T21:33:04;20.17;;;7.80;;
79611;SDS011;69094;48.154;11.536;2023-04-06T21:35:30;11.57;;;6.63;;
79611;SDS011;69094;48.154;11.536;2023-04-06T21:40:21;13.17;;;7.37;;
79611;SDS011;69094;48.154;11.536;2023-04-06T21:45:11;12.93;;;6.97;;
79611;SDS011;69094;48.154;11.536;2023-04-06T21:47:37;14.07;;;7.47;;
79611;SDS011;69094;48.154;11.536;2023-04-06T21:52:28;14.77;;;7.25;;
79611;SDS011;69094;48.154;11.536;2023-04-06T21:57:18;14.03;;;7.23;;
79611;SDS011;69094;48.154;11.536;2023-04-06T21:59:44;15.03;;;7.00;;
79611;SDS011;69094;48.154;11.536;2023-04-06T22:02:09;12.85;;;7.00;;
79611;SDS011;69094;48.154;11.536;2023-04-06T22:07:00;12.93;;;5.97;;
79611;SDS011;69094;48.154;11.536;2023-04-06T22:11:51;9.47;;;5.37;;
79611;SDS011;69094;48.154;11.536;2023-04-06T22:14:16;11.37;;;4.53;;
79611;SDS011;69094;48.154;11.536;2023-04-06T22:16:43;14.60;;;7.40;;
79611;SDS011;69094;48.154;11.536;2023-04-06T22:19:08;13.13;;;6.10;;
79611;SDS011;69094;48.154;11.536;2023-04-06T22:21:34;12.40;;;6.35;;
79611;SDS011;69094;48.154;11.536;2023-04-06T22:24:00;12.35;;;6.50;;
79611;SDS011;69094;48.154;11.536;2023-04-06T22:28:50;10.33;;;5.90;;
79611;SDS011;69094;48.154;11.536;2023-04-06T22:33:41;10.83;;;5.93;;
79611;SDS011;69094;48.154;11.536;2023-04-06T22:36:06;13.00;;;6.13;;
79611;SDS011;69094;48.154;11.536;2023-04-06T22:38:32;12.52;;;6.45;;
79611;SDS011;69094;48.154;11.536;2023-04-06T22:40:57;14.02;;;6.47;;
79611;SDS011;69094;48.154;11.536;2023-04-06T22:45:48;11.57;;;5.80;;
79611;SDS011;69094;48.154;11.536;2023-04-06T22:48:13;11.40;;;5.47;;
79611;SDS011;69094;48.154;11.536;2023-04-06T22:50:39;12.15;;;6.13;;
79611;SDS011;69094;48.154;11.536;2023-04-06T22:55:30;10.43;;;5.10;;
79611;SDS011;69094;48.154;11.536;2023-04-06T22:57:56;10.95;;;5.93;;
79611;SDS011;69094;48.154;11.536;2023-04-06T23:02:46;11.17;;;5.33;;
79611;SDS011;69094;48.154;11.536;2023-04-06T23:05:12;11.43;;;6.00;;
79611;SDS011;69094;48.154;11.536;2023-04-06T23:10:02;10.17;;;5.07;;
79611;SDS011;69094;48.154;11.536;2023-04-06T23:12:28;11.68;;;5.55;;
79611;SDS011;69094;48.154;11.536;2023-04-06T23:14:53;10.53;;;6.03;;
79611;SDS011;69094;48.154;11.536;2023-04-06T23:17:18;9.90;;;5.40;;
79611;SDS011;69094;48.154;11.536;2023-04-06T23:19:44;10.77;;;5.68;;
79611;SDS011;69094;48.154;11.536;2023-04-06T23:22:09;10.63;;;6.13;;
79611;SDS011;69094;48.154;11.536;2023-04-06T23:27:00;8.03;;;5.10;;
79611;SDS011;69094;48.154;11.536;2023-04-06T23:29:25;11.47;;;5.30;;
79611;SDS011;69094;48.154;11.536;2023-04-06T23:31:51;9.47;;;5.37;;
79611;SDS011;69094;48.154;11.536;2023-04-06T23:34:16;10.27;;;5.77;;
79611;SDS011;69094;48.154;11.536;2023-04-06T23:39:07;10.03;;;4.90;;
79611;SDS011;69094;48.154;11.536;2023-04-06T23:41:32;11.17;;;4.67;;
79611;SDS011;69094;48.154;11.536;2023-04-06T23:43:57;9.57;;;4.97;;
79611;SDS011;69094;48.154;11.536;2023-04-06T23:46:23;10.52;;;6.25;;
79611;SDS011;69094;48.154;11.536;2023-04-06T23:48:48;9.97;;;5.40;;
79611;SDS011;69094;48.154;11.536;2023-04-06T23:53:39;11.53;;;5.77;;
79611;SDS011;69094;48.154;11.536;2023-04-06T23:56:05;12.15;;;5.13;;
79611;SDS011;69094;48.154;11.536;2023-04-06T23:58:30;9.13;;;5.43;;
